KPBF

Pine Bluff Regional Grider Field Airport

Pine Bluff, Arkansas, USA
METAR KPBF 171753Z AUTO 03008KT 340V060 10SM CLR 17/07 A3038 RMK AO2 SLP285 T01670067 10167 20083 58002
Observed Flight Rules
Oct-17 @ 17:53 UTC (41 minutes ago) Visual Flight Rules
Wind Visibility Clouds
30° at 8 knots 10 miles
  • Clear skies
Temperatures Readings
Current 17°C / 63°F
Dewpoint 7°C / 45°F
Humidity 52%
Altimeter 30.38" Hg
Pressure 1028.5 hPa
Elevation 62
METAR KPBF 171753Z AUTO 03008KT 340V060 10SM CLR 17/07 A3038 RMK AO2 SLP285 T01670067 10167 20083 58002
Observed Flight Rules
Oct-17 @ 17:53 UTC
(41 minutes ago)
VFR
Wind Visibility
30° at 8 knots 10 miles
Clouds
  • Clear skies
Temperature Dewpoint
17°C / 63°F 7°C / 45°F
Humidity Altimeter Pressure
52% 30.38" Hg 1028.5 hPa